Terminal Aerodrome Forecast
Issued by NWS Mt. Holly, NJ

Current Version | Previous Version | Text Only | Print | Product List | Glossary On
Versions: 1 2 3 4 5 6 7 8 9 10 11 12 13 14 15 16 17 18 19
000
FTUS41 KPHI 280500
TAFPHL
TAF
KPHL 280520Z 2806/2912 23005KT P6SM SCT050 BKN120
     FM281700 29008KT 6SM -SHRA OVC050
      TEMPO 2819/2822 6SM -SHRA BKN025
     FM290000 32008KT P6SM SCT025 OVC100
     FM291100 35008KT P6SM SCT030 OVC150=

USA.gov is the U.S. government's official web portal to all federal, state and local government web resources and services.